South Royalston, Massachusetts
Current Conditions -  °F | °C
As of 12:52 AM on Saturday 25 Oct 2014 (Local Time) from KORE Reporting Station
Few Clouds Few Clouds  
Wind Chill: 45°   Ceiling: Unl
Heat Index: 45°   Visibility: 10mi
Dew Point: 39°   Wind: 3mph
Humidity: 80%   Direction: 330°NNW
Pressure: 29.78"   Gusts: NA
Location:  42.5958°N, 72.2274°W
Report Text: KORE 250452Z AUTO 33003KT 10SM FEW055 07/04 A2978 RMK AO2 SLP086 T00720039 401170072
Loading
Personal Weather Stations






























Interactive Weather Map
Tropical Storm Tracking
New forecast layout! Learn more

10-Day Weather Forecast

Advertisements
Track Severe Weather on mobile